sensor_id;sensor_type;location;lat;lon;timestamp;P1;durP1;ratioP1;P2;durP2;ratioP2
7737;SDS011;29398;45.328;5.558;2023-04-06T00:00:01;12.25;;;8.82;;
7737;SDS011;29398;45.328;5.558;2023-04-06T00:01:09;13.70;;;9.50;;
7737;SDS011;29398;45.328;5.558;2023-04-06T00:02:11;13.85;;;9.35;;
7737;SDS011;29398;45.328;5.558;2023-04-06T00:03:13;13.00;;;9.68;;
7737;SDS011;29398;45.328;5.558;2023-04-06T00:04:15;15.05;;;9.82;;
7737;SDS011;29398;45.328;5.558;2023-04-06T00:05:17;15.00;;;9.77;;
7737;SDS011;29398;45.328;5.558;2023-04-06T00:06:19;15.20;;;10.15;;
7737;SDS011;29398;45.328;5.558;2023-04-06T00:07:21;16.67;;;11.15;;
7737;SDS011;29398;45.328;5.558;2023-04-06T00:08:22;15.95;;;10.50;;
7737;SDS011;29398;45.328;5.558;2023-04-06T00:09:25;18.13;;;11.90;;
7737;SDS011;29398;45.328;5.558;2023-04-06T00:10:26;20.63;;;11.45;;
7737;SDS011;29398;45.328;5.558;2023-04-06T00:11:28;17.05;;;10.07;;
7737;SDS011;29398;45.328;5.558;2023-04-06T00:12:29;14.02;;;9.18;;
7737;SDS011;29398;45.328;5.558;2023-04-06T00:13:31;14.07;;;9.32;;
7737;SDS011;29398;45.328;5.558;2023-04-06T00:14:32;15.45;;;10.98;;
7737;SDS011;29398;45.328;5.558;2023-04-06T00:15:34;13.52;;;9.30;;
7737;SDS011;29398;45.328;5.558;2023-04-06T00:16:36;12.38;;;8.70;;
7737;SDS011;29398;45.328;5.558;2023-04-06T00:17:38;11.60;;;8.88;;
7737;SDS011;29398;45.328;5.558;2023-04-06T00:18:39;12.23;;;7.65;;
7737;SDS011;29398;45.328;5.558;2023-04-06T00:19:42;12.73;;;8.95;;
7737;SDS011;29398;45.328;5.558;2023-04-06T00:20:43;11.43;;;8.02;;
7737;SDS011;29398;45.328;5.558;2023-04-06T00:21:46;11.73;;;8.55;;
7737;SDS011;29398;45.328;5.558;2023-04-06T00:22:47;14.00;;;9.93;;
7737;SDS011;29398;45.328;5.558;2023-04-06T00:23:49;13.23;;;9.30;;
7737;SDS011;29398;45.328;5.558;2023-04-06T00:24:50;14.02;;;9.48;;
7737;SDS011;29398;45.328;5.558;2023-04-06T00:25:52;15.02;;;9.73;;
7737;SDS011;29398;45.328;5.558;2023-04-06T00:26:53;15.95;;;9.20;;
7737;SDS011;29398;45.328;5.558;2023-04-06T00:27:56;13.40;;;9.27;;
7737;SDS011;29398;45.328;5.558;2023-04-06T00:28:57;14.85;;;9.80;;
7737;SDS011;29398;45.328;5.558;2023-04-06T00:29:59;13.23;;;8.35;;
7737;SDS011;29398;45.328;5.558;2023-04-06T00:31:00;15.23;;;9.63;;
7737;SDS011;29398;45.328;5.558;2023-04-06T00:32:02;15.63;;;9.88;;
7737;SDS011;29398;45.328;5.558;2023-04-06T00:33:03;13.90;;;9.50;;
7737;SDS011;29398;45.328;5.558;2023-04-06T00:34:05;12.95;;;9.32;;
7737;SDS011;29398;45.328;5.558;2023-04-06T00:35:08;13.32;;;9.05;;
7737;SDS011;29398;45.328;5.558;2023-04-06T00:36:11;11.75;;;8.07;;
7737;SDS011;29398;45.328;5.558;2023-04-06T00:37:12;9.50;;;7.57;;
7737;SDS011;29398;45.328;5.558;2023-04-06T00:38:14;10.45;;;7.70;;
7737;SDS011;29398;45.328;5.558;2023-04-06T00:39:15;7.88;;;7.07;;
7737;SDS011;29398;45.328;5.558;2023-04-06T00:40:18;9.00;;;7.07;;
7737;SDS011;29398;45.328;5.558;2023-04-06T00:41:19;9.13;;;7.45;;
7737;SDS011;29398;45.328;5.558;2023-04-06T00:42:21;13.93;;;8.68;;
7737;SDS011;29398;45.328;5.558;2023-04-06T00:43:26;14.35;;;9.25;;
7737;SDS011;29398;45.328;5.558;2023-04-06T00:44:28;18.92;;;11.65;;
7737;SDS011;29398;45.328;5.558;2023-04-06T00:45:29;22.38;;;12.57;;
7737;SDS011;29398;45.328;5.558;2023-04-06T00:46:31;19.08;;;10.90;;
7737;SDS011;29398;45.328;5.558;2023-04-06T00:47:32;20.70;;;11.70;;
7737;SDS011;29398;45.328;5.558;2023-04-06T00:48:34;24.30;;;12.43;;
7737;SDS011;29398;45.328;5.558;2023-04-06T00:49:36;24.05;;;12.77;;
7737;SDS011;29398;45.328;5.558;2023-04-06T00:50:39;29.10;;;13.50;;
7737;SDS011;29398;45.328;5.558;2023-04-06T00:51:40;24.02;;;12.48;;
7737;SDS011;29398;45.328;5.558;2023-04-06T00:52:43;32.72;;;16.88;;
7737;SDS011;29398;45.328;5.558;2023-04-06T00:53:44;37.58;;;16.92;;
7737;SDS011;29398;45.328;5.558;2023-04-06T00:54:47;38.75;;;18.00;;
7737;SDS011;29398;45.328;5.558;2023-04-06T00:55:49;33.42;;;15.90;;
7737;SDS011;29398;45.328;5.558;2023-04-06T00:56:51;33.17;;;15.18;;
7737;SDS011;29398;45.328;5.558;2023-04-06T00:57:53;25.60;;;13.55;;
7737;SDS011;29398;45.328;5.558;2023-04-06T00:58:55;26.55;;;12.88;;
7737;SDS011;29398;45.328;5.558;2023-04-06T00:59:57;22.55;;;11.63;;
7737;SDS011;29398;45.328;5.558;2023-04-06T01:00:59;17.33;;;9.43;;
7737;SDS011;29398;45.328;5.558;2023-04-06T01:02:01;14.30;;;9.50;;
7737;SDS011;29398;45.328;5.558;2023-04-06T01:03:12;16.58;;;9.15;;
7737;SDS011;29398;45.328;5.558;2023-04-06T01:04:16;15.18;;;8.93;;
7737;SDS011;29398;45.328;5.558;2023-04-06T01:05:18;13.20;;;8.55;;
7737;SDS011;29398;45.328;5.558;2023-04-06T01:06:33;12.07;;;7.88;;
7737;SDS011;29398;45.328;5.558;2023-04-06T01:07:36;11.48;;;7.85;;
7737;SDS011;29398;45.328;5.558;2023-04-06T01:08:47;11.63;;;7.85;;
7737;SDS011;29398;45.328;5.558;2023-04-06T01:09:55;12.30;;;8.05;;
7737;SDS011;29398;45.328;5.558;2023-04-06T01:11:00;17.27;;;10.05;;
7737;SDS011;29398;45.328;5.558;2023-04-06T01:12:04;17.90;;;9.52;;
7737;SDS011;29398;45.328;5.558;2023-04-06T01:13:06;19.20;;;10.40;;
7737;SDS011;29398;45.328;5.558;2023-04-06T01:14:30;20.92;;;10.68;;
7737;SDS011;29398;45.328;5.558;2023-04-06T01:15:34;19.10;;;10.35;;
7737;SDS011;29398;45.328;5.558;2023-04-06T01:16:40;17.05;;;9.98;;
7737;SDS011;29398;45.328;5.558;2023-04-06T01:17:48;16.55;;;8.75;;
7737;SDS011;29398;45.328;5.558;2023-04-06T01:18:51;18.00;;;9.70;;
7737;SDS011;29398;45.328;5.558;2023-04-06T01:19:57;17.40;;;9.82;;
7737;SDS011;29398;45.328;5.558;2023-04-06T01:21:03;16.08;;;9.40;;
7737;SDS011;29398;45.328;5.558;2023-04-06T01:22:07;14.00;;;8.80;;
7737;SDS011;29398;45.328;5.558;2023-04-06T01:23:36;11.82;;;7.38;;
7737;SDS011;29398;45.328;5.558;2023-04-06T01:24:38;9.38;;;7.28;;
7737;SDS011;29398;45.328;5.558;2023-04-06T01:25:49;9.38;;;7.50;;
7737;SDS011;29398;45.328;5.558;2023-04-06T01:26:51;11.77;;;8.45;;
7737;SDS011;29398;45.328;5.558;2023-04-06T01:27:52;9.50;;;7.43;;
7737;SDS011;29398;45.328;5.558;2023-04-06T01:29:09;9.38;;;7.13;;
7737;SDS011;29398;45.328;5.558;2023-04-06T01:30:10;9.75;;;7.55;;
7737;SDS011;29398;45.328;5.558;2023-04-06T01:31:18;9.38;;;7.53;;
7737;SDS011;29398;45.328;5.558;2023-04-06T01:32:23;8.32;;;7.28;;
7737;SDS011;29398;45.328;5.558;2023-04-06T01:33:26;7.95;;;6.97;;
7737;SDS011;29398;45.328;5.558;2023-04-06T01:34:33;8.65;;;6.85;;
7737;SDS011;29398;45.328;5.558;2023-04-06T01:35:38;9.30;;;6.57;;
7737;SDS011;29398;45.328;5.558;2023-04-06T01:36:58;9.13;;;7.03;;
7737;SDS011;29398;45.328;5.558;2023-04-06T01:38:03;9.32;;;7.60;;
7737;SDS011;29398;45.328;5.558;2023-04-06T01:39:10;9.13;;;7.22;;
7737;SDS011;29398;45.328;5.558;2023-04-06T01:40:14;9.02;;;7.15;;
7737;SDS011;29398;45.328;5.558;2023-04-06T01:41:20;10.15;;;7.65;;
7737;SDS011;29398;45.328;5.558;2023-04-06T01:42:26;7.68;;;6.53;;
7737;SDS011;29398;45.328;5.558;2023-04-06T01:43:28;8.55;;;7.10;;
7737;SDS011;29398;45.328;5.558;2023-04-06T01:44:42;11.25;;;8.40;;
7737;SDS011;29398;45.328;5.558;2023-04-06T01:45:47;12.18;;;9.35;;
7737;SDS011;29398;45.328;5.558;2023-04-06T01:46:53;10.23;;;9.13;;
7737;SDS011;29398;45.328;5.558;2023-04-06T01:47:56;9.90;;;8.63;;
7737;SDS011;29398;45.328;5.558;2023-04-06T01:49:00;11.40;;;9.77;;
7737;SDS011;29398;45.328;5.558;2023-04-06T01:50:13;10.10;;;9.10;;
7737;SDS011;29398;45.328;5.558;2023-04-06T01:51:19;11.93;;;9.70;;
7737;SDS011;29398;45.328;5.558;2023-04-06T01:52:26;11.98;;;9.57;;
7737;SDS011;29398;45.328;5.558;2023-04-06T01:53:28;10.40;;;9.30;;
7737;SDS011;29398;45.328;5.558;2023-04-06T01:54:36;10.65;;;9.48;;
7737;SDS011;29398;45.328;5.558;2023-04-06T01:55:48;10.80;;;8.98;;
7737;SDS011;29398;45.328;5.558;2023-04-06T01:56:57;10.20;;;8.43;;
7737;SDS011;29398;45.328;5.558;2023-04-06T01:58:10;10.52;;;8.80;;
7737;SDS011;29398;45.328;5.558;2023-04-06T01:59:13;10.60;;;8.93;;
7737;SDS011;29398;45.328;5.558;2023-04-06T02:00:18;11.38;;;8.82;;
7737;SDS011;29398;45.328;5.558;2023-04-06T02:01:25;11.15;;;8.52;;
7737;SDS011;29398;45.328;5.558;2023-04-06T02:02:30;15.15;;;9.45;;
7737;SDS011;29398;45.328;5.558;2023-04-06T02:03:38;25.40;;;12.73;;
7737;SDS011;29398;45.328;5.558;2023-04-06T02:04:44;39.85;;;14.32;;
7737;SDS011;29398;45.328;5.558;2023-04-06T02:05:47;36.53;;;15.60;;
7737;SDS011;29398;45.328;5.558;2023-04-06T02:06:59;64.43;;;24.67;;
7737;SDS011;29398;45.328;5.558;2023-04-06T02:08:03;56.25;;;22.65;;
7737;SDS011;29398;45.328;5.558;2023-04-06T02:09:08;54.15;;;22.40;;
7737;SDS011;29398;45.328;5.558;2023-04-06T02:10:12;42.47;;;19.15;;
7737;SDS011;29398;45.328;5.558;2023-04-06T02:11:16;36.13;;;17.35;;
7737;SDS011;29398;45.328;5.558;2023-04-06T02:12:23;30.77;;;14.65;;
7737;SDS011;29398;45.328;5.558;2023-04-06T02:13:24;30.50;;;14.20;;
7737;SDS011;29398;45.328;5.558;2023-04-06T02:14:27;32.90;;;15.43;;
7737;SDS011;29398;45.328;5.558;2023-04-06T02:15:32;32.80;;;15.70;;
7737;SDS011;29398;45.328;5.558;2023-04-06T02:16:34;31.25;;;15.55;;
7737;SDS011;29398;45.328;5.558;2023-04-06T02:17:35;26.85;;;14.23;;
7737;SDS011;29398;45.328;5.558;2023-04-06T02:18:38;26.40;;;13.52;;
7737;SDS011;29398;45.328;5.558;2023-04-06T02:19:39;19.98;;;11.65;;
7737;SDS011;29398;45.328;5.558;2023-04-06T02:20:41;18.30;;;11.13;;
7737;SDS011;29398;45.328;5.558;2023-04-06T02:21:43;16.63;;;10.60;;
7737;SDS011;29398;45.328;5.558;2023-04-06T02:22:44;13.32;;;9.18;;
7737;SDS011;29398;45.328;5.558;2023-04-06T02:23:46;12.30;;;9.02;;
7737;SDS011;29398;45.328;5.558;2023-04-06T02:24:47;11.35;;;8.23;;
7737;SDS011;29398;45.328;5.558;2023-04-06T02:25:51;10.93;;;7.78;;
7737;SDS011;29398;45.328;5.558;2023-04-06T02:26:52;9.82;;;8.38;;
7737;SDS011;29398;45.328;5.558;2023-04-06T02:27:55;10.20;;;7.68;;
7737;SDS011;29398;45.328;5.558;2023-04-06T02:28:56;10.43;;;7.65;;
7737;SDS011;29398;45.328;5.558;2023-04-06T02:29:58;9.00;;;8.00;;
7737;SDS011;29398;45.328;5.558;2023-04-06T02:30:59;9.23;;;7.82;;
7737;SDS011;29398;45.328;5.558;2023-04-06T02:32:01;8.38;;;7.25;;
7737;SDS011;29398;45.328;5.558;2023-04-06T02:33:06;8.88;;;7.78;;
7737;SDS011;29398;45.328;5.558;2023-04-06T02:34:16;7.95;;;6.93;;
7737;SDS011;29398;45.328;5.558;2023-04-06T02:35:21;8.70;;;7.18;;
7737;SDS011;29398;45.328;5.558;2023-04-06T02:36:28;8.70;;;6.85;;
7737;SDS011;29398;45.328;5.558;2023-04-06T02:37:30;9.32;;;7.25;;
7737;SDS011;29398;45.328;5.558;2023-04-06T02:38:33;8.85;;;6.63;;
7737;SDS011;29398;45.328;5.558;2023-04-06T02:39:35;8.25;;;6.85;;
7737;SDS011;29398;45.328;5.558;2023-04-06T02:40:42;7.60;;;6.80;;
7737;SDS011;29398;45.328;5.558;2023-04-06T02:41:52;7.30;;;6.50;;
7737;SDS011;29398;45.328;5.558;2023-04-06T02:42:58;7.88;;;7.07;;
7737;SDS011;29398;45.328;5.558;2023-04-06T02:44:05;8.55;;;7.03;;
7737;SDS011;29398;45.328;5.558;2023-04-06T02:45:13;10.10;;;7.05;;
7737;SDS011;29398;45.328;5.558;2023-04-06T02:46:18;7.50;;;6.80;;
7737;SDS011;29398;45.328;5.558;2023-04-06T02:47:21;8.27;;;6.43;;
7737;SDS011;29398;45.328;5.558;2023-04-06T02:48:24;7.38;;;6.68;;
7737;SDS011;29398;45.328;5.558;2023-04-06T02:49:27;7.50;;;6.70;;
7737;SDS011;29398;45.328;5.558;2023-04-06T02:50:30;8.98;;;7.53;;
7737;SDS011;29398;45.328;5.558;2023-04-06T02:51:36;8.65;;;7.70;;
7737;SDS011;29398;45.328;5.558;2023-04-06T02:52:52;8.75;;;7.45;;
7737;SDS011;29398;45.328;5.558;2023-04-06T02:53:54;7.80;;;6.93;;
7737;SDS011;29398;45.328;5.558;2023-04-06T02:54:55;7.55;;;6.85;;
7737;SDS011;29398;45.328;5.558;2023-04-06T02:56:01;9.43;;;6.53;;
7737;SDS011;29398;45.328;5.558;2023-04-06T02:57:16;6.80;;;6.10;;
7737;SDS011;29398;45.328;5.558;2023-04-06T02:58:20;7.05;;;6.35;;
7737;SDS011;29398;45.328;5.558;2023-04-06T02:59:25;7.97;;;6.38;;
7737;SDS011;29398;45.328;5.558;2023-04-06T03:00:37;8.02;;;6.43;;
7737;SDS011;29398;45.328;5.558;2023-04-06T03:01:38;7.72;;;6.60;;
7737;SDS011;29398;45.328;5.558;2023-04-06T03:02:40;7.18;;;6.47;;
7737;SDS011;29398;45.328;5.558;2023-04-06T03:03:48;9.20;;;7.78;;
7737;SDS011;29398;45.328;5.558;2023-04-06T03:04:57;9.40;;;8.18;;
7737;SDS011;29398;45.328;5.558;2023-04-06T03:06:04;10.65;;;7.88;;
7737;SDS011;29398;45.328;5.558;2023-04-06T03:07:06;10.30;;;8.25;;
7737;SDS011;29398;45.328;5.558;2023-04-06T03:08:11;9.52;;;8.25;;
7737;SDS011;29398;45.328;5.558;2023-04-06T03:09:16;9.95;;;8.55;;
7737;SDS011;29398;45.328;5.558;2023-04-06T03:10:18;9.23;;;7.57;;
7737;SDS011;29398;45.328;5.558;2023-04-06T03:11:22;8.43;;;7.50;;
7737;SDS011;29398;45.328;5.558;2023-04-06T03:12:26;7.75;;;6.95;;
7737;SDS011;29398;45.328;5.558;2023-04-06T03:13:47;8.57;;;6.43;;
7737;SDS011;29398;45.328;5.558;2023-04-06T03:14:49;7.47;;;6.68;;
7737;SDS011;29398;45.328;5.558;2023-04-06T03:15:50;8.93;;;7.25;;
7737;SDS011;29398;45.328;5.558;2023-04-06T03:16:54;7.43;;;6.72;;
7737;SDS011;29398;45.328;5.558;2023-04-06T03:17:56;8.75;;;6.63;;
7737;SDS011;29398;45.328;5.558;2023-04-06T03:19:19;10.68;;;7.28;;
7737;SDS011;29398;45.328;5.558;2023-04-06T03:20:20;8.13;;;6.60;;
7737;SDS011;29398;45.328;5.558;2023-04-06T03:21:22;10.10;;;7.38;;
7737;SDS011;29398;45.328;5.558;2023-04-06T03:22:26;10.50;;;7.45;;
7737;SDS011;29398;45.328;5.558;2023-04-06T03:23:28;8.00;;;7.20;;
7737;SDS011;29398;45.328;5.558;2023-04-06T03:24:33;9.00;;;6.55;;
7737;SDS011;29398;45.328;5.558;2023-04-06T03:25:35;9.10;;;7.10;;
7737;SDS011;29398;45.328;5.558;2023-04-06T03:26:39;12.07;;;6.85;;
7737;SDS011;29398;45.328;5.558;2023-04-06T03:27:43;7.55;;;6.68;;
7737;SDS011;29398;45.328;5.558;2023-04-06T03:28:48;8.75;;;7.05;;
7737;SDS011;29398;45.328;5.558;2023-04-06T03:29:50;8.50;;;7.00;;
7737;SDS011;29398;45.328;5.558;2023-04-06T03:30:59;7.90;;;7.10;;
7737;SDS011;29398;45.328;5.558;2023-04-06T03:32:24;9.73;;;7.32;;
7737;SDS011;29398;45.328;5.558;2023-04-06T03:33:25;10.52;;;7.15;;
7737;SDS011;29398;45.328;5.558;2023-04-06T03:34:29;8.38;;;7.22;;
7737;SDS011;29398;45.328;5.558;2023-04-06T03:35:30;8.32;;;7.05;;
7737;SDS011;29398;45.328;5.558;2023-04-06T03:36:33;7.55;;;6.80;;
7737;SDS011;29398;45.328;5.558;2023-04-06T03:37:37;9.68;;;6.55;;
7737;SDS011;29398;45.328;5.558;2023-04-06T03:38:39;11.10;;;6.45;;
7737;SDS011;29398;45.328;5.558;2023-04-06T03:39:45;9.63;;;6.45;;
7737;SDS011;29398;45.328;5.558;2023-04-06T03:40:51;7.38;;;6.13;;
7737;SDS011;29398;45.328;5.558;2023-04-06T03:41:57;8.07;;;6.45;;
7737;SDS011;29398;45.328;5.558;2023-04-06T03:43:23;7.13;;;6.20;;
7737;SDS011;29398;45.328;5.558;2023-04-06T03:44:25;7.20;;;6.13;;
7737;SDS011;29398;45.328;5.558;2023-04-06T03:45:26;7.50;;;6.60;;
7737;SDS011;29398;45.328;5.558;2023-04-06T03:46:28;9.23;;;7.20;;
7737;SDS011;29398;45.328;5.558;2023-04-06T03:47:31;11.77;;;7.10;;
7737;SDS011;29398;45.328;5.558;2023-04-06T03:48:38;8.40;;;7.60;;
7737;SDS011;29398;45.328;5.558;2023-04-06T03:49:40;7.32;;;6.60;;
7737;SDS011;29398;45.328;5.558;2023-04-06T03:50:45;8.52;;;6.35;;
7737;SDS011;29398;45.328;5.558;2023-04-06T03:51:46;9.65;;;7.13;;
7737;SDS011;29398;45.328;5.558;2023-04-06T03:52:48;8.23;;;6.07;;
7737;SDS011;29398;45.328;5.558;2023-04-06T03:53:49;8.88;;;6.40;;
7737;SDS011;29398;45.328;5.558;2023-04-06T03:54:51;8.45;;;6.45;;
7737;SDS011;29398;45.328;5.558;2023-04-06T03:55:52;7.60;;;6.80;;
7737;SDS011;29398;45.328;5.558;2023-04-06T03:56:55;7.55;;;6.15;;
7737;SDS011;29398;45.328;5.558;2023-04-06T03:57:56;7.47;;;6.55;;
7737;SDS011;29398;45.328;5.558;2023-04-06T03:59:00;9.48;;;6.72;;
7737;SDS011;29398;45.328;5.558;2023-04-06T04:00:02;9.10;;;6.97;;
7737;SDS011;29398;45.328;5.558;2023-04-06T04:01:13;7.75;;;6.95;;
7737;SDS011;29398;45.328;5.558;2023-04-06T04:02:14;10.52;;;7.15;;
7737;SDS011;29398;45.328;5.558;2023-04-06T04:03:16;7.97;;;7.03;;
7737;SDS011;29398;45.328;5.558;2023-04-06T04:04:17;11.98;;;8.77;;
7737;SDS011;29398;45.328;5.558;2023-04-06T04:05:19;11.13;;;7.95;;
7737;SDS011;29398;45.328;5.558;2023-04-06T04:06:25;9.38;;;7.68;;
7737;SDS011;29398;45.328;5.558;2023-04-06T04:07:27;10.55;;;7.80;;
7737;SDS011;29398;45.328;5.558;2023-04-06T04:08:29;9.35;;;8.02;;
7737;SDS011;29398;45.328;5.558;2023-04-06T04:09:31;13.80;;;8.45;;
7737;SDS011;29398;45.328;5.558;2023-04-06T04:10:32;10.40;;;7.80;;
7737;SDS011;29398;45.328;5.558;2023-04-06T04:11:34;11.40;;;7.35;;
7737;SDS011;29398;45.328;5.558;2023-04-06T04:12:35;9.43;;;7.90;;
7737;SDS011;29398;45.328;5.558;2023-04-06T04:13:37;10.73;;;8.05;;
7737;SDS011;29398;45.328;5.558;2023-04-06T04:14:41;9.25;;;7.55;;
7737;SDS011;29398;45.328;5.558;2023-04-06T04:15:44;12.10;;;7.20;;
7737;SDS011;29398;45.328;5.558;2023-04-06T04:16:45;10.52;;;7.50;;
7737;SDS011;29398;45.328;5.558;2023-04-06T04:17:47;11.32;;;7.13;;
7737;SDS011;29398;45.328;5.558;2023-04-06T04:18:49;13.60;;;7.28;;
7737;SDS011;29398;45.328;5.558;2023-04-06T04:19:51;10.10;;;7.38;;
7737;SDS011;29398;45.328;5.558;2023-04-06T04:20:52;9.63;;;6.60;;
7737;SDS011;29398;45.328;5.558;2023-04-06T04:21:56;8.55;;;6.82;;
7737;SDS011;29398;45.328;5.558;2023-04-06T04:23:05;8.18;;;7.15;;
7737;SDS011;29398;45.328;5.558;2023-04-06T04:24:08;8.15;;;6.57;;
7737;SDS011;29398;45.328;5.558;2023-04-06T04:25:10;9.60;;;7.25;;
7737;SDS011;29398;45.328;5.558;2023-04-06T04:26:18;8.85;;;7.57;;
7737;SDS011;29398;45.328;5.558;2023-04-06T04:27:20;7.60;;;6.63;;
7737;SDS011;29398;45.328;5.558;2023-04-06T04:28:24;9.18;;;7.43;;
7737;SDS011;29398;45.328;5.558;2023-04-06T04:29:27;10.25;;;7.50;;
7737;SDS011;29398;45.328;5.558;2023-04-06T04:30:36;12.30;;;8.40;;
7737;SDS011;29398;45.328;5.558;2023-04-06T04:31:43;16.52;;;8.35;;
7737;SDS011;29398;45.328;5.558;2023-04-06T04:32:50;14.60;;;9.23;;
7737;SDS011;29398;45.328;5.558;2023-04-06T04:33:54;14.48;;;8.98;;
7737;SDS011;29398;45.328;5.558;2023-04-06T04:35:02;18.33;;;9.15;;
7737;SDS011;29398;45.328;5.558;2023-04-06T04:36:09;14.18;;;7.93;;
7737;SDS011;29398;45.328;5.558;2023-04-06T04:37:15;12.65;;;7.93;;
7737;SDS011;29398;45.328;5.558;2023-04-06T04:38:24;12.10;;;8.35;;
7737;SDS011;29398;45.328;5.558;2023-04-06T04:39:29;14.13;;;8.55;;
7737;SDS011;29398;45.328;5.558;2023-04-06T04:40:36;14.45;;;8.95;;
7737;SDS011;29398;45.328;5.558;2023-04-06T04:41:42;11.52;;;8.48;;
7737;SDS011;29398;45.328;5.558;2023-04-06T04:42:45;11.27;;;8.80;;
7737;SDS011;29398;45.328;5.558;2023-04-06T04:43:55;12.38;;;9.07;;
7737;SDS011;29398;45.328;5.558;2023-04-06T04:44:58;11.98;;;9.73;;
7737;SDS011;29398;45.328;5.558;2023-04-06T04:46:11;11.50;;;9.52;;
7737;SDS011;29398;45.328;5.558;2023-04-06T04:47:14;13.45;;;9.25;;
7737;SDS011;29398;45.328;5.558;2023-04-06T04:48:20;13.18;;;9.65;;
7737;SDS011;29398;45.328;5.558;2023-04-06T04:49:26;16.17;;;10.40;;
7737;SDS011;29398;45.328;5.558;2023-04-06T04:50:29;12.02;;;9.05;;
7737;SDS011;29398;45.328;5.558;2023-04-06T04:51:32;10.20;;;8.70;;
7737;SDS011;29398;45.328;5.558;2023-04-06T04:52:57;10.32;;;8.45;;
7737;SDS011;29398;45.328;5.558;2023-04-06T04:54:00;11.50;;;8.27;;
7737;SDS011;29398;45.328;5.558;2023-04-06T04:55:05;10.25;;;7.78;;
7737;SDS011;29398;45.328;5.558;2023-04-06T04:56:06;14.35;;;7.80;;
7737;SDS011;29398;45.328;5.558;2023-04-06T04:57:08;10.60;;;7.97;;
7737;SDS011;29398;45.328;5.558;2023-04-06T04:58:15;16.67;;;7.70;;
7737;SDS011;29398;45.328;5.558;2023-04-06T04:59:24;14.20;;;7.90;;
7737;SDS011;29398;45.328;5.558;2023-04-06T05:00:32;11.90;;;8.40;;
7737;SDS011;29398;45.328;5.558;2023-04-06T05:01:36;12.90;;;8.75;;
7737;SDS011;29398;45.328;5.558;2023-04-06T05:02:37;14.48;;;8.95;;
7737;SDS011;29398;45.328;5.558;2023-04-06T05:03:54;13.57;;;8.77;;
7737;SDS011;29398;45.328;5.558;2023-04-06T05:04:55;10.63;;;7.90;;
7737;SDS011;29398;45.328;5.558;2023-04-06T05:05:59;13.10;;;8.90;;
7737;SDS011;29398;45.328;5.558;2023-04-06T05:07:05;12.55;;;8.40;;
7737;SDS011;29398;45.328;5.558;2023-04-06T05:08:09;14.80;;;8.40;;
7737;SDS011;29398;45.328;5.558;2023-04-06T05:09:17;11.35;;;8.15;;
7737;SDS011;29398;45.328;5.558;2023-04-06T05:10:19;10.18;;;8.38;;
7737;SDS011;29398;45.328;5.558;2023-04-06T05:11:33;14.35;;;8.02;;
7737;SDS011;29398;45.328;5.558;2023-04-06T05:12:35;15.27;;;8.70;;
7737;SDS011;29398;45.328;5.558;2023-04-06T05:13:42;13.90;;;9.00;;
7737;SDS011;29398;45.328;5.558;2023-04-06T05:14:51;16.90;;;8.75;;
7737;SDS011;29398;45.328;5.558;2023-04-06T05:15:56;12.07;;;8.65;;
7737;SDS011;29398;45.328;5.558;2023-04-06T05:17:06;12.18;;;8.23;;
7737;SDS011;29398;45.328;5.558;2023-04-06T05:18:07;12.52;;;7.85;;
7737;SDS011;29398;45.328;5.558;2023-04-06T05:19:10;10.10;;;7.30;;
7737;SDS011;29398;45.328;5.558;2023-04-06T05:20:16;8.68;;;7.00;;
7737;SDS011;29398;45.328;5.558;2023-04-06T05:21:24;12.05;;;7.43;;
7737;SDS011;29398;45.328;5.558;2023-04-06T05:22:33;10.77;;;7.18;;
7737;SDS011;29398;45.328;5.558;2023-04-06T05:23:42;12.27;;;7.55;;
7737;SDS011;29398;45.328;5.558;2023-04-06T05:24:43;11.98;;;8.07;;
7737;SDS011;29398;45.328;5.558;2023-04-06T05:25:45;14.48;;;7.90;;
7737;SDS011;29398;45.328;5.558;2023-04-06T05:26:53;11.57;;;7.30;;
7737;SDS011;29398;45.328;5.558;2023-04-06T05:27:58;10.52;;;7.07;;
7737;SDS011;29398;45.328;5.558;2023-04-06T05:29:05;10.68;;;7.68;;
7737;SDS011;29398;45.328;5.558;2023-04-06T05:30:10;8.98;;;7.25;;
7737;SDS011;29398;45.328;5.558;2023-04-06T05:31:17;9.45;;;7.75;;
7737;SDS011;29398;45.328;5.558;2023-04-06T05:32:25;11.18;;;8.20;;
7737;SDS011;29398;45.328;5.558;2023-04-06T05:33:28;8.80;;;7.50;;
7737;SDS011;29398;45.328;5.558;2023-04-06T05:34:40;9.90;;;7.75;;
7737;SDS011;29398;45.328;5.558;2023-04-06T05:35:42;11.13;;;8.20;;
7737;SDS011;29398;45.328;5.558;2023-04-06T05:36:46;13.10;;;7.95;;
7737;SDS011;29398;45.328;5.558;2023-04-06T05:37:55;9.85;;;7.60;;
7737;SDS011;29398;45.328;5.558;2023-04-06T05:38:59;11.15;;;8.32;;
7737;SDS011;29398;45.328;5.558;2023-04-06T05:40:12;10.32;;;8.02;;
7737;SDS011;29398;45.328;5.558;2023-04-06T05:41:14;8.98;;;7.35;;
7737;SDS011;29398;45.328;5.558;2023-04-06T05:42:16;9.90;;;7.32;;
7737;SDS011;29398;45.328;5.558;2023-04-06T05:43:25;9.57;;;8.07;;
7737;SDS011;29398;45.328;5.558;2023-04-06T05:44:29;10.38;;;8.60;;
7737;SDS011;29398;45.328;5.558;2023-04-06T05:45:43;13.23;;;8.27;;
7737;SDS011;29398;45.328;5.558;2023-04-06T05:46:46;10.52;;;8.60;;
7737;SDS011;29398;45.328;5.558;2023-04-06T05:47:51;12.15;;;8.30;;
7737;SDS011;29398;45.328;5.558;2023-04-06T05:48:59;11.53;;;9.17;;
7737;SDS011;29398;45.328;5.558;2023-04-06T05:50:05;10.18;;;7.75;;
7737;SDS011;29398;45.328;5.558;2023-04-06T05:51:10;10.30;;;7.88;;
7737;SDS011;29398;45.328;5.558;2023-04-06T05:52:18;8.55;;;7.38;;
7737;SDS011;29398;45.328;5.558;2023-04-06T05:53:22;27.55;;;17.63;;
7737;SDS011;29398;45.328;5.558;2023-04-06T05:54:29;45.50;;;27.55;;
7737;SDS011;29398;45.328;5.558;2023-04-06T05:55:34;29.88;;;19.40;;
7737;SDS011;29398;45.328;5.558;2023-04-06T05:57:46;21.77;;;14.35;;
7737;SDS011;29398;45.328;5.558;2023-04-06T05:58:51;42.55;;;24.42;;
7737;SDS011;29398;45.328;5.558;2023-04-06T05:59:58;26.77;;;16.77;;
7737;SDS011;29398;45.328;5.558;2023-04-06T06:01:12;81.10;;;47.72;;
7737;SDS011;29398;45.328;5.558;2023-04-06T06:02:19;44.22;;;26.48;;
7737;SDS011;29398;45.328;5.558;2023-04-06T06:03:26;45.78;;;27.88;;
7737;SDS011;29398;45.328;5.558;2023-04-06T06:04:30;29.88;;;19.35;;
7737;SDS011;29398;45.328;5.558;2023-04-06T06:05:32;21.80;;;16.52;;
7737;SDS011;29398;45.328;5.558;2023-04-06T06:06:40;32.42;;;20.83;;
7737;SDS011;29398;45.328;5.558;2023-04-06T06:07:47;29.65;;;21.90;;
7737;SDS011;29398;45.328;5.558;2023-04-06T06:08:48;16.95;;;11.57;;
7737;SDS011;29398;45.328;5.558;2023-04-06T06:09:52;17.58;;;13.90;;
7737;SDS011;29398;45.328;5.558;2023-04-06T06:11:01;17.48;;;13.00;;
7737;SDS011;29398;45.328;5.558;2023-04-06T06:12:04;14.00;;;9.32;;
7737;SDS011;29398;45.328;5.558;2023-04-06T06:13:05;11.00;;;8.68;;
7737;SDS011;29398;45.328;5.558;2023-04-06T06:14:07;8.80;;;7.90;;
7737;SDS011;29398;45.328;5.558;2023-04-06T06:15:13;10.40;;;8.82;;
7737;SDS011;29398;45.328;5.558;2023-04-06T06:16:19;16.75;;;13.60;;
7737;SDS011;29398;45.328;5.558;2023-04-06T06:17:22;12.45;;;9.98;;
7737;SDS011;29398;45.328;5.558;2023-04-06T06:18:26;16.13;;;10.13;;
7737;SDS011;29398;45.328;5.558;2023-04-06T06:19:28;13.02;;;8.60;;
7737;SDS011;29398;45.328;5.558;2023-04-06T06:20:34;12.38;;;7.05;;
7737;SDS011;29398;45.328;5.558;2023-04-06T06:21:38;8.90;;;7.70;;
7737;SDS011;29398;45.328;5.558;2023-04-06T06:22:41;10.25;;;7.22;;
7737;SDS011;29398;45.328;5.558;2023-04-06T06:23:46;9.75;;;6.80;;
7737;SDS011;29398;45.328;5.558;2023-04-06T06:24:53;8.82;;;7.05;;
7737;SDS011;29398;45.328;5.558;2023-04-06T06:25:55;10.32;;;8.18;;
7737;SDS011;29398;45.328;5.558;2023-04-06T06:26:58;13.38;;;10.18;;
7737;SDS011;29398;45.328;5.558;2023-04-06T06:28:02;18.77;;;13.40;;
7737;SDS011;29398;45.328;5.558;2023-04-06T06:29:06;28.13;;;20.33;;
7737;SDS011;29398;45.328;5.558;2023-04-06T06:30:09;30.13;;;24.60;;
7737;SDS011;29398;45.328;5.558;2023-04-06T06:31:15;14.20;;;11.82;;
7737;SDS011;29398;45.328;5.558;2023-04-06T06:32:18;14.80;;;11.32;;